Terminal Aerodrome Forecast
Issued by NWS

Home | Current Version | Previous Version | Text Only | Print | Product List | Glossary On
Versions: 1 2 3 4 5 6 7 8 9 10 11 12
324
FTUS45 KVEF 231720
TAFHND
TAF
KHND 231720Z 2318/2418 02011KT P6SM FEW120 FEW250
     FM232000 36008KT P6SM FEW120
     FM240800 VRB06KT P6SM SKC
     FM241600 03008KT P6SM SKC=

USA.gov is the U.S. government's official web portal to all federal, state and local government web resources and services.